METAR Data
IDs: Format: Raw Decoded Include TAF

Data at: 0907 UTC 23 Sep 2018

KOCW 230845Z AUTO 00000KT 10SM CLR 20/19 A3008 RMK AO2 T01960190
KOCW 230825Z AUTO 00000KT 10SM CLR 20/19 A3008 RMK AO2 T01970190
KOCW 230805Z AUTO 00000KT 10SM CLR 20/19 A3009 RMK AO2 T01960190
KOCW 230745Z AUTO 00000KT 10SM CLR 20/19 A3009 RMK AO2 T01970190
KOCW 230725Z AUTO 00000KT 10SM CLR 21/20 A3010 RMK AO2 T02050197
KOCW 230705Z AUTO 00000KT 10SM CLR 20/20 A3010 RMK AO2 T02040196
KOCW 230645Z AUTO 00000KT 10SM CLR 21/20 A3011 RMK AO2 T02060197
KOCW 230625Z AUTO 00000KT 10SM SCT050 SCT060 SCT070 22/20 A3011 RMK AO2 T02160203
KOCW 230605Z AUTO 00000KT 10SM SCT042 BKN048 BKN060 23/20 A3011 RMK AO2 T02270202
KOCW 230545Z AUTO 00000KT 10SM BKN042 OVC050 23/20 A3011 RMK AO2 T02320202
KOCW 230525Z AUTO 00000KT 10SM BKN042 OVC050 23/21 A3011 RMK AO2 T02300205
KOCW 230505Z AUTO 00000KT 10SM BKN042 23/20 A3011 RMK AO2 T02310203
KOCW 230445Z AUTO 00000KT 10SM CLR 23/20 A3011 RMK AO2 T02280204
KOCW 230425Z AUTO 00000KT 10SM CLR 23/21 A3011 RMK AO2 T02260205
KOCW 230405Z AUTO 00000KT 10SM CLR 23/20 A3011 RMK AO2 T02290204
KOCW 230345Z AUTO 00000KT 10SM SCT042 SCT060 24/21 A3011 RMK AO2 T02350205
KOCW 230325Z AUTO 14003KT 10SM SCT042 SCT050 BKN055 24/21 A3011 RMK AO2 T02370205
KOCW 230305Z AUTO 15003KT 10SM BKN050 24/21 A3010 RMK AO2 T02410206
KOCW 230245Z AUTO 14003KT 10SM SCT050 24/21 A3010 RMK AO2 T02410209
KOCW 230225Z AUTO 15005KT 10SM SCT050 24/21 A3010 RMK AO2 T02410209
KOCW 230205Z AUTO 16006KT 10SM SCT050 25/21 A3010 RMK AO2 T02450209
KOCW 230145Z AUTO 15006KT 10SM CLR 25/21 A3010 RMK AO2 T02460210
KOCW 230125Z AUTO 14005KT 10SM CLR 25/21 A3009 RMK AO2 T02500212
KOCW 230105Z AUTO 14006KT 10SM CLR 25/21 A3008 RMK AO2 T02510213
KOCW 230045Z AUTO 14005KT 10SM CLR 25/21 A3007 RMK AO2 T02530213
KOCW 230025Z AUTO 14005KT 10SM CLR 26/21 A3007 RMK AO2 T02550212
KOCW 230005Z AUTO 14005KT 10SM CLR 26/21 A3006 RMK AO2 T02600212
KOCW 222345Z AUTO 14005KT 10SM CLR 26/22 A3006 RMK AO2 T02630215
KOCW 222325Z AUTO 13004KT 10SM CLR 27/21 A3006 RMK AO2 T02650212
KOCW 222305Z AUTO 13004KT 10SM CLR 27/21 A3006 RMK AO2 T02720213
KOCW 222245Z AUTO 14005KT 10SM CLR 28/21 A3006 RMK AO2 T02810212
KOCW 222225Z AUTO 17003KT 10SM CLR 29/21 A3006 RMK AO2 T02870210
KOCW 222205Z AUTO 16003KT 10SM CLR 30/21 A3005 RMK AO2 T02950209
KOCW 222145Z AUTO 18003KT 10SM SCT043 SCT050 30/21 A3005 RMK AO2 T02990208
KOCW 222125Z AUTO 00000KT 10SM BKN045 BKN050 31/20 A3005 RMK AO2 T03070203
KOCW 222105Z AUTO 19004KT 10SM SCT043 BKN060 31/21 A3005 RMK AO2 T03090209
KOCW 222045Z AUTO 19004KT 10SM SCT050 BKN060 31/20 A3005 RMK AO2 T03070204
KOCW 222025Z AUTO 00000KT 10SM SCT050 SCT070 31/21 A3005 RMK AO2 T03110208
KOCW 222005Z AUTO 18003KT 10SM BKN043 BKN048 31/21 A3005 RMK AO2 T03080207
KOCW 221945Z AUTO 00000KT 10SM BKN041 OVC048 31/21 A3005 RMK AO2 T03100205
KOCW 221925Z AUTO 18003KT 10SM OVC041 31/20 A3005 RMK AO2 T03070202
KOCW 221905Z AUTO 18003KT 10SM SCT041 31/20 A3006 RMK AO2 T03070203
KOCW 221845Z AUTO 00000KT 10SM SCT039 31/20 A3006 RMK AO2 T03070202
KOCW 221825Z AUTO 23006KT 10SM SCT039 31/21 A3006 RMK AO2 T03060205
KOCW 221805Z AUTO 00000KT 10SM CLR 31/20 A3008 RMK AO2 T03050204
KOCW 221745Z AUTO 29003KT 10SM CLR 30/20 A3009 RMK AO2 T02980203
KOCW 221725Z AUTO 24004KT 10SM CLR 30/20 A3009 RMK AO2 T03000204
KOCW 221705Z AUTO 00000KT 10SM CLR 30/20 A3009 RMK AO2 T02970201
KOCW 221645Z AUTO 20005KT 10SM CLR 30/20 A3010 RMK AO2 T02950200
KOCW 221625Z AUTO 24004KT 10SM CLR 29/20 A3010 RMK AO2 T02910200
KOCW 221605Z AUTO 22008KT 10SM CLR 29/20 A3011 RMK AO2 T02870198
KOCW 221545Z AUTO 00000KT 10SM CLR 28/20 A3011 RMK AO2 T02810197
KOCW 221525Z AUTO 20005KT 10SM CLR 28/20 A3012 RMK AO2 T02780196
KOCW 221505Z AUTO 23006KT 10SM CLR 28/20 A3013 RMK AO2 T02750196
KOCW 221445Z AUTO 23005KT 10SM CLR 27/19 A3013 RMK AO2 T02700190
KOCW 221425Z AUTO 22007KT 5SM HZ CLR 27/19 A3013 RMK AO2 T02670188
KOCW 221405Z AUTO 26005KT 7SM CLR 26/19 A3013 RMK AO2 T02610191
KOCW 221345Z AUTO 24004KT 10SM CLR 25/20 A3013 RMK AO2 T02530202
KOCW 221325Z AUTO 26005KT 10SM CLR 25/20 A3013 RMK AO2 T02460203
KOCW 221305Z AUTO 24006KT 10SM CLR 24/21 A3013 RMK AO2 T02400206
KOCW 221245Z AUTO 25005KT 10SM CLR 23/20 A3013 RMK AO2 T02310204
KOCW 221225Z AUTO 25003KT 10SM CLR 22/20 A3013 RMK AO2 T02220201
KOCW 221205Z AUTO 23003KT 10SM SCT038 21/20 A3013 RMK AO2 T02100197
KOCW 221145Z AUTO 00000KT 10SM BKN038 20/20 A3013 RMK AO2 T02030195
KOCW 221125Z AUTO 00000KT 10SM SCT040 SCT046 SCT050 20/19 A3013 RMK AO2 T01950186
KOCW 221105Z AUTO 00000KT 10SM BKN046 BKN055 19/18 A3012 RMK AO2 T01920184
KOCW 221045Z AUTO 00000KT 10SM SCT048 19/18 A3012 RMK AO2 T01900182
KOCW 221025Z AUTO 00000KT 10SM CLR 19/19 A3012 RMK AO2 T01920185
KOCW 221005Z AUTO 00000KT 10SM CLR 20/19 A3012 RMK AO2 T01950188
KOCW 220945Z AUTO 00000KT 10SM CLR 19/18 A3012 RMK AO2 T01910184
KOCW 220925Z AUTO 00000KT 7SM CLR 19/19 A3011 RMK AO2 T01920186
KOCW 220905Z AUTO 00000KT 10SM CLR 19/18 A3011 RMK AO2 T01890183
KOCW 220845Z AUTO 00000KT 7SM CLR 20/19 A3011 RMK AO2 T01950188
KOCW 220825Z AUTO 00000KT 10SM CLR 20/19 A3011 RMK AO2 T01950187
KOCW 220805Z AUTO 00000KT 10SM CLR 20/19 A3011 RMK AO2 T01970190
KOCW 220745Z AUTO 00000KT 10SM CLR 20/19 A3011 RMK AO2 T01990188
KOCW 220725Z AUTO 00000KT 10SM CLR 20/19 A3011 RMK AO2 T02000190
KOCW 220705Z AUTO 00000KT 10SM CLR 20/19 A3011 RMK AO2 T02030192
KOCW 220645Z AUTO 00000KT 10SM CLR 20/19 A3012 RMK AO2 T02040192
KOCW 220625Z AUTO 00000KT 10SM CLR 20/19 A3012 RMK AO2 T02030192
KOCW 220605Z AUTO 00000KT 10SM CLR 20/19 A3013 RMK AO2 T02000187
KOCW 220545Z AUTO 00000KT 10SM CLR 20/19 A3014 RMK AO2 T01990192
KOCW 220525Z AUTO 00000KT 10SM CLR 20/19 A3014 RMK AO2 T01970188
KOCW 220505Z AUTO 00000KT 10SM CLR 19/19 A3014 RMK AO2 T01940185
KOCW 220445Z AUTO 00000KT 10SM CLR 20/19 A3015 RMK AO2 T01960188
KOCW 220425Z AUTO 17003KT 10SM CLR 20/19 A3015 RMK AO2 T01970188
KOCW 220405Z AUTO 00000KT 10SM CLR 21/19 A3016 RMK AO2 T02050192
KOCW 220345Z AUTO 00000KT 10SM CLR 22/20 A3016 RMK AO2 T02150195
KOCW 220325Z AUTO 00000KT 10SM CLR 22/20 A3015 RMK AO2 T02180196
KOCW 220305Z AUTO 00000KT 10SM CLR 22/20 A3015 RMK AO2 T02200195
KOCW 220245Z AUTO 17003KT 10SM CLR 22/19 A3015 RMK AO2 T02200194
KOCW 220225Z AUTO 00000KT 10SM CLR 22/19 A3015 RMK AO2 T02230193
KOCW 220205Z AUTO 17004KT 10SM CLR 23/19 A3015 RMK AO2 T02250192
KOCW 220145Z AUTO 15003KT 10SM CLR 23/19 A3014 RMK AO2 T02250191
KOCW 220125Z AUTO 15004KT 10SM CLR 22/19 A3014 RMK AO2 T02240190
KOCW 220105Z AUTO 14003KT 10SM CLR 22/19 A3014 RMK AO2 T02220188
KOCW 220045Z AUTO 00000KT 10SM CLR 22/19 A3014 RMK AO2 T02170190
KOCW 220025Z AUTO 00000KT 10SM CLR 23/19 A3013 RMK AO2 T02280191
KOCW 220005Z AUTO 00000KT 10SM CLR 23/19 A3012 RMK AO2 T02260189
KOCW 212345Z AUTO 00000KT 10SM CLR 23/19 A3013 RMK AO2 T02320187
KOCW 212325Z AUTO 00000KT 10SM SCT049 24/19 A3012 RMK AO2 T02410185
KOCW 212305Z AUTO 00000KT 10SM BKN049 25/18 A3012 RMK AO2 T02510182
KOCW 212245Z AUTO 00000KT 10SM BKN049 26/18 A3013 RMK AO2 T02620177
KOCW 212225Z AUTO 00000KT 10SM BKN049 27/17 A3013 RMK AO2 T02700173
KOCW 212205Z AUTO 15004KT 10SM SCT047 28/17 A3013 RMK AO2 T02760168
KOCW 212145Z AUTO 15004KT 10SM CLR 28/16 A3013 RMK AO2 T02790164
KOCW 212125Z AUTO 17004KT 10SM SCT048 28/17 A3013 RMK AO2 T02810166